sensor_id;sensor_type;location;lat;lon;timestamp;pressure;altitude;pressure_sealevel;temperature;humidity
11985;BME280;6052;53.246;10.368;2023-04-27T00:00:25;101399.72;;;9.17;66.40
11985;BME280;6052;53.246;10.368;2023-04-27T00:02:54;101403.25;;;9.17;66.53
11985;BME280;6052;53.246;10.368;2023-04-27T00:05:27;101403.00;;;9.19;66.00
11985;BME280;6052;53.246;10.368;2023-04-27T00:07:56;101392.09;;;9.14;66.09
11985;BME280;6052;53.246;10.368;2023-04-27T00:10:26;101398.31;;;9.08;66.19
11985;BME280;6052;53.246;10.368;2023-04-27T00:12:55;101400.59;;;9.11;66.38
11985;BME280;6052;53.246;10.368;2023-04-27T00:15:24;101403.88;;;9.06;66.61
11985;BME280;6052;53.246;10.368;2023-04-27T00:17:54;101398.53;;;9.00;66.58
11985;BME280;6052;53.246;10.368;2023-04-27T00:20:24;101400.19;;;9.01;66.42
11985;BME280;6052;53.246;10.368;2023-04-27T00:22:56;101400.19;;;9.01;66.53
11985;BME280;6052;53.246;10.368;2023-04-27T00:25:25;101399.16;;;8.95;66.60
11985;BME280;6052;53.246;10.368;2023-04-27T00:27:55;101404.31;;;8.97;66.62
11985;BME280;6052;53.246;10.368;2023-04-27T00:30:24;101393.59;;;8.97;66.50
11985;BME280;6052;53.246;10.368;2023-04-27T00:32:53;101392.56;;;8.98;66.76
11985;BME280;6052;53.246;10.368;2023-04-27T00:35:23;101389.69;;;8.86;66.89
11985;BME280;6052;53.246;10.368;2023-04-27T00:37:52;101396.69;;;8.87;67.11
11985;BME280;6052;53.246;10.368;2023-04-27T00:40:25;101392.56;;;8.91;66.53
11985;BME280;6052;53.246;10.368;2023-04-27T00:42:54;101391.13;;;8.89;66.75
11985;BME280;6052;53.246;10.368;2023-04-27T00:45:23;101393.63;;;8.84;67.04
11985;BME280;6052;53.246;10.368;2023-04-27T00:47:53;101396.09;;;8.85;67.03
11985;BME280;6052;53.246;10.368;2023-04-27T00:50:26;101397.97;;;8.78;67.07
11985;BME280;6052;53.246;10.368;2023-04-27T00:52:56;101390.53;;;8.80;66.91
11985;BME280;6052;53.246;10.368;2023-04-27T00:55:29;101390.16;;;8.77;66.98
11985;BME280;6052;53.246;10.368;2023-04-27T00:57:58;101387.88;;;8.74;67.08
11985;BME280;6052;53.246;10.368;2023-04-27T01:00:28;101396.94;;;8.79;67.12
11985;BME280;6052;53.246;10.368;2023-04-27T01:02:58;101391.59;;;8.73;67.26
11985;BME280;6052;53.246;10.368;2023-04-27T01:05:29;101385.81;;;8.76;67.00
11985;BME280;6052;53.246;10.368;2023-04-27T01:07:58;101391.97;;;8.70;67.21
11985;BME280;6052;53.246;10.368;2023-04-27T01:10:31;101394.47;;;8.71;67.02
11985;BME280;6052;53.246;10.368;2023-04-27T01:13:00;101399.00;;;8.71;67.05
11985;BME280;6052;53.246;10.368;2023-04-27T01:15:30;101395.69;;;8.62;67.65
11985;BME280;6052;53.246;10.368;2023-04-27T01:18:00;101393.84;;;8.63;67.54
11985;BME280;6052;53.246;10.368;2023-04-27T01:20:30;101398.59;;;8.54;67.38
11985;BME280;6052;53.246;10.368;2023-04-27T01:22:59;101396.94;;;8.53;67.49
11985;BME280;6052;53.246;10.368;2023-04-27T01:25:31;101396.13;;;8.53;67.42
11985;BME280;6052;53.246;10.368;2023-04-27T01:28:01;101399.59;;;8.53;67.44
11985;BME280;6052;53.246;10.368;2023-04-27T01:30:30;101404.75;;;8.55;67.31
11985;BME280;6052;53.246;10.368;2023-04-27T01:33:00;101409.50;;;8.46;67.16
11985;BME280;6052;53.246;10.368;2023-04-27T01:35:29;101406.00;;;8.46;67.27
11985;BME280;6052;53.246;10.368;2023-04-27T01:37:59;101412.56;;;8.43;67.63
11985;BME280;6052;53.246;10.368;2023-04-27T01:40:31;101415.25;;;8.43;67.30
11985;BME280;6052;53.246;10.368;2023-04-27T01:43:00;101419.16;;;8.47;67.75
11985;BME280;6052;53.246;10.368;2023-04-27T01:45:30;101417.13;;;8.43;67.55
11985;BME280;6052;53.246;10.368;2023-04-27T01:47:59;101419.78;;;8.30;67.71
11985;BME280;6052;53.246;10.368;2023-04-27T01:50:29;101424.09;;;8.31;67.85
11985;BME280;6052;53.246;10.368;2023-04-27T01:52:58;101429.44;;;8.31;67.77
11985;BME280;6052;53.246;10.368;2023-04-27T01:55:31;101421.63;;;8.36;67.85
11985;BME280;6052;53.246;10.368;2023-04-27T01:58:00;101431.09;;;8.25;67.64
11985;BME280;6052;53.246;10.368;2023-04-27T02:00:30;101432.94;;;8.25;68.06
11985;BME280;6052;53.246;10.368;2023-04-27T02:02:59;101434.31;;;8.14;68.77
11985;BME280;6052;53.246;10.368;2023-04-27T02:05:29;101442.56;;;8.13;68.53
11985;BME280;6052;53.246;10.368;2023-04-27T02:07:58;101442.56;;;8.19;68.63
11985;BME280;6052;53.246;10.368;2023-04-27T02:10:30;101444.41;;;8.12;69.26
11985;BME280;6052;53.246;10.368;2023-04-27T02:13:00;101443.75;;;7.97;70.79
11985;BME280;6052;53.246;10.368;2023-04-27T02:15:29;101450.97;;;8.03;70.26
11985;BME280;6052;53.246;10.368;2023-04-27T02:17:59;101449.72;;;7.93;71.11
11985;BME280;6052;53.246;10.368;2023-04-27T02:20:29;101460.81;;;7.96;71.04
11985;BME280;6052;53.246;10.368;2023-04-27T02:22:58;101456.50;;;8.02;70.40
11985;BME280;6052;53.246;10.368;2023-04-27T02:25:28;101459.19;;;8.08;70.38
11985;BME280;6052;53.246;10.368;2023-04-27T02:27:59;101467.63;;;7.99;70.83
11985;BME280;6052;53.246;10.368;2023-04-27T02:30:30;101466.81;;;8.05;70.36
11985;BME280;6052;53.246;10.368;2023-04-27T02:32:59;101459.38;;;8.07;70.71
11985;BME280;6052;53.246;10.368;2023-04-27T02:35:29;101459.16;;;8.02;70.13
11985;BME280;6052;53.246;10.368;2023-04-27T02:38:00;101466.59;;;8.00;71.69
11985;BME280;6052;53.246;10.368;2023-04-27T02:40:29;101462.25;;;7.92;71.44
11985;BME280;6052;53.246;10.368;2023-04-27T02:43:01;101460.81;;;7.96;71.56
11985;BME280;6052;53.246;10.368;2023-04-27T02:45:30;101465.31;;;7.96;71.27
11985;BME280;6052;53.246;10.368;2023-04-27T02:48:00;101469.03;;;7.95;71.47
11985;BME280;6052;53.246;10.368;2023-04-27T02:50:29;101466.34;;;7.88;72.67
11985;BME280;6052;53.246;10.368;2023-04-27T02:52:58;101454.38;;;7.84;73.05
11985;BME280;6052;53.246;10.368;2023-04-27T02:55:28;101454.19;;;7.86;72.49
11985;BME280;6052;53.246;10.368;2023-04-27T02:58:01;101457.88;;;7.78;73.22
11985;BME280;6052;53.246;10.368;2023-04-27T03:00:31;101461.34;;;7.72;73.86
11985;BME280;6052;53.246;10.368;2023-04-27T03:03:01;101456.66;;;7.81;73.44
11985;BME280;6052;53.246;10.368;2023-04-27T03:05:30;101470.59;;;7.70;74.97
11985;BME280;6052;53.246;10.368;2023-04-27T03:08:00;101466.88;;;7.71;74.67
11985;BME280;6052;53.246;10.368;2023-04-27T03:10:29;101465.47;;;7.75;74.16
11985;BME280;6052;53.246;10.368;2023-04-27T03:13:01;101458.25;;;7.75;74.10
11985;BME280;6052;53.246;10.368;2023-04-27T03:15:31;101459.31;;;7.81;73.69
11985;BME280;6052;53.246;10.368;2023-04-27T03:18:01;101459.94;;;7.83;73.47
11985;BME280;6052;53.246;10.368;2023-04-27T03:20:30;101467.94;;;7.83;73.35
11985;BME280;6052;53.246;10.368;2023-04-27T03:23:00;101473.28;;;7.83;73.12
11985;BME280;6052;53.246;10.368;2023-04-27T03:25:29;101467.16;;;7.89;72.56
11985;BME280;6052;53.246;10.368;2023-04-27T03:28:02;101472.72;;;7.87;73.33
11985;BME280;6052;53.246;10.368;2023-04-27T03:30:32;101474.09;;;7.77;73.64
11985;BME280;6052;53.246;10.368;2023-04-27T03:33:01;101472.06;;;7.79;73.75
11985;BME280;6052;53.246;10.368;2023-04-27T03:35:31;101470.63;;;7.76;73.89
11985;BME280;6052;53.246;10.368;2023-04-27T03:38:00;101474.75;;;7.79;73.54
11985;BME280;6052;53.246;10.368;2023-04-27T03:40:29;101465.06;;;7.71;74.04
11985;BME280;6052;53.246;10.368;2023-04-27T03:43:01;101474.28;;;7.69;74.28
11985;BME280;6052;53.246;10.368;2023-04-27T03:45:31;101473.28;;;7.76;73.35
11985;BME280;6052;53.246;10.368;2023-04-27T03:48:01;101474.75;;;7.79;72.65
11985;BME280;6052;53.246;10.368;2023-04-27T03:50:30;101474.75;;;7.79;72.82
11985;BME280;6052;53.246;10.368;2023-04-27T03:53:00;101474.75;;;7.92;72.04
11985;BME280;6052;53.246;10.368;2023-04-27T03:55:29;101477.84;;;7.89;71.94
11985;BME280;6052;53.246;10.368;2023-04-27T03:58:01;101476.78;;;7.83;72.14
11985;BME280;6052;53.246;10.368;2023-04-27T04:00:31;101477.00;;;7.82;72.08
11985;BME280;6052;53.246;10.368;2023-04-27T04:03:01;101485.59;;;7.71;72.21
11985;BME280;6052;53.246;10.368;2023-04-27T04:05:31;101485.97;;;7.61;72.53
11985;BME280;6052;53.246;10.368;2023-04-27T04:08:01;101480.63;;;7.68;72.43
11985;BME280;6052;53.246;10.368;2023-04-27T04:10:30;101481.28;;;7.70;72.20
11985;BME280;6052;53.246;10.368;2023-04-27T04:13:02;101489.66;;;7.67;72.08
11985;BME280;6052;53.246;10.368;2023-04-27T04:15:31;101481.84;;;7.59;71.98
11985;BME280;6052;53.246;10.368;2023-04-27T04:18:01;101484.50;;;7.59;72.06
11985;BME280;6052;53.246;10.368;2023-04-27T04:20:30;101489.22;;;7.57;72.02
11985;BME280;6052;53.246;10.368;2023-04-27T04:22:59;101488.00;;;7.59;71.82
11985;BME280;6052;53.246;10.368;2023-04-27T04:25:29;101496.19;;;7.58;71.75
11985;BME280;6052;53.246;10.368;2023-04-27T04:27:58;101493.53;;;7.58;72.12
11985;BME280;6052;53.246;10.368;2023-04-27T04:30:30;101494.38;;;7.58;71.99
11985;BME280;6052;53.246;10.368;2023-04-27T04:33:00;101495.81;;;7.61;72.19
11985;BME280;6052;53.246;10.368;2023-04-27T04:35:29;101501.72;;;7.50;72.85
11985;BME280;6052;53.246;10.368;2023-04-27T04:37:58;101501.69;;;7.43;73.02
11985;BME280;6052;53.246;10.368;2023-04-27T04:40:28;101500.28;;;7.47;73.22
11985;BME280;6052;53.246;10.368;2023-04-27T04:42:57;101497.84;;;7.52;72.93
11985;BME280;6052;53.246;10.368;2023-04-27T04:45:29;101502.34;;;7.52;72.59
11985;BME280;6052;53.246;10.368;2023-04-27T04:47:59;101502.75;;;7.55;72.70
11985;BME280;6052;53.246;10.368;2023-04-27T04:50:29;101500.84;;;7.43;72.94
11985;BME280;6052;53.246;10.368;2023-04-27T04:52:59;101518.38;;;7.52;72.97
11985;BME280;6052;53.246;10.368;2023-04-27T04:55:28;101517.28;;;7.46;73.88
11985;BME280;6052;53.246;10.368;2023-04-27T04:57:58;101513.47;;;7.28;74.81
11985;BME280;6052;53.246;10.368;2023-04-27T05:00:31;101516.88;;;7.43;74.00
11985;BME280;6052;53.246;10.368;2023-04-27T05:03:01;101523.84;;;7.37;74.47
11985;BME280;6052;53.246;10.368;2023-04-27T05:05:32;101526.50;;;7.37;74.54
11985;BME280;6052;53.246;10.368;2023-04-27T05:08:02;101517.28;;;7.40;74.52
11985;BME280;6052;53.246;10.368;2023-04-27T05:10:31;101523.63;;;7.39;75.17
11985;BME280;6052;53.246;10.368;2023-04-27T05:13:00;101524.03;;;7.36;75.58
11985;BME280;6052;53.246;10.368;2023-04-27T05:15:36;101514.19;;;7.43;75.85
11985;BME280;6052;53.246;10.368;2023-04-27T05:18:05;101522.94;;;7.30;77.22
11985;BME280;6052;53.246;10.368;2023-04-27T05:20:34;101516.94;;;7.22;79.33
11985;BME280;6052;53.246;10.368;2023-04-27T05:23:04;101524.41;;;7.33;79.70
11985;BME280;6052;53.246;10.368;2023-04-27T05:25:34;101524.81;;;7.30;80.87
11985;BME280;6052;53.246;10.368;2023-04-27T05:28:07;101527.06;;;7.33;81.11
11985;BME280;6052;53.246;10.368;2023-04-27T05:30:39;101541.25;;;7.33;80.85
11985;BME280;6052;53.246;10.368;2023-04-27T05:33:09;101538.19;;;7.36;81.11
11985;BME280;6052;53.246;10.368;2023-04-27T05:35:38;101536.94;;;7.32;82.46
11985;BME280;6052;53.246;10.368;2023-04-27T05:38:07;101537.19;;;7.37;81.80
11985;BME280;6052;53.246;10.368;2023-04-27T05:40:37;101533.78;;;7.22;83.29
11985;BME280;6052;53.246;10.368;2023-04-27T05:43:06;101537.19;;;7.37;82.48
11985;BME280;6052;53.246;10.368;2023-04-27T05:45:40;101532.38;;;7.26;83.27
11985;BME280;6052;53.246;10.368;2023-04-27T05:48:09;101538.41;;;7.41;81.83
11985;BME280;6052;53.246;10.368;2023-04-27T05:50:39;101537.19;;;7.37;82.13
11985;BME280;6052;53.246;10.368;2023-04-27T05:53:11;101540.53;;;7.46;82.28
11985;BME280;6052;53.246;10.368;2023-04-27T05:55:41;101535.19;;;7.46;82.46
11985;BME280;6052;53.246;10.368;2023-04-27T05:58:10;101541.88;;;7.35;83.86
11985;BME280;6052;53.246;10.368;2023-04-27T06:00:42;101543.16;;;7.39;83.31
11985;BME280;6052;53.246;10.368;2023-04-27T06:03:12;101536.78;;;7.40;84.84
11985;BME280;6052;53.246;10.368;2023-04-27T06:05:42;101547.47;;;7.40;85.19
11985;BME280;6052;53.246;10.368;2023-04-27T06:08:11;101547.03;;;7.37;85.11
11985;BME280;6052;53.246;10.368;2023-04-27T06:10:40;101547.97;;;7.57;83.81
11985;BME280;6052;53.246;10.368;2023-04-27T06:13:10;101547.59;;;7.60;85.24
11985;BME280;6052;53.246;10.368;2023-04-27T06:15:39;101552.47;;;7.50;86.80
11985;BME280;6052;53.246;10.368;2023-04-27T06:18:11;101554.59;;;7.61;86.26
11985;BME280;6052;53.246;10.368;2023-04-27T06:20:40;101556.53;;;7.46;87.17
11985;BME280;6052;53.246;10.368;2023-04-27T06:23:10;101558.56;;;7.44;86.80
11985;BME280;6052;53.246;10.368;2023-04-27T06:25:39;101563.41;;;7.55;87.25
11985;BME280;6052;53.246;10.368;2023-04-27T06:28:08;101560.06;;;7.53;86.62
11985;BME280;6052;53.246;10.368;2023-04-27T06:30:38;101563.19;;;7.56;86.78
11985;BME280;6052;53.246;10.368;2023-04-27T06:33:07;101557.03;;;7.56;87.64
11985;BME280;6052;53.246;10.368;2023-04-27T06:35:39;101556.66;;;7.65;87.22
11985;BME280;6052;53.246;10.368;2023-04-27T06:38:12;101562.78;;;7.59;87.30
11985;BME280;6052;53.246;10.368;2023-04-27T06:40:42;101556.03;;;7.63;87.56
11985;BME280;6052;53.246;10.368;2023-04-27T06:43:11;101561.56;;;7.62;87.26
11985;BME280;6052;53.246;10.368;2023-04-27T06:45:41;101556.66;;;7.65;86.72
11985;BME280;6052;53.246;10.368;2023-04-27T06:48:10;101553.00;;;7.73;86.26
11985;BME280;6052;53.246;10.368;2023-04-27T06:50:42;101562.84;;;7.66;86.72
11985;BME280;6052;53.246;10.368;2023-04-27T06:53:12;101561.25;;;7.78;86.94
11985;BME280;6052;53.246;10.368;2023-04-27T06:55:42;101563.53;;;7.81;86.60
11985;BME280;6052;53.246;10.368;2023-04-27T06:58:14;101563.31;;;7.76;86.22
11985;BME280;6052;53.246;10.368;2023-04-27T07:00:43;101565.41;;;7.87;86.41
11985;BME280;6052;53.246;10.368;2023-04-27T07:03:12;101563.81;;;7.92;86.21
11985;BME280;6052;53.246;10.368;2023-04-27T07:05:45;101566.25;;;7.87;85.98
11985;BME280;6052;53.246;10.368;2023-04-27T07:08:14;101567.94;;;7.95;85.29
11985;BME280;6052;53.246;10.368;2023-04-27T07:10:43;101566.94;;;8.02;85.83
11985;BME280;6052;53.246;10.368;2023-04-27T07:13:13;101569.66;;;8.09;84.85
11985;BME280;6052;53.246;10.368;2023-04-27T07:15:42;101566.91;;;7.96;85.47
11985;BME280;6052;53.246;10.368;2023-04-27T07:18:12;101564.06;;;8.04;85.78
11985;BME280;6052;53.246;10.368;2023-04-27T07:20:46;101564.72;;;8.12;85.67
11985;BME280;6052;53.246;10.368;2023-04-27T07:23:16;101574.59;;;8.18;85.83
11985;BME280;6052;53.246;10.368;2023-04-27T07:25:46;101573.81;;;8.18;85.27
11985;BME280;6052;53.246;10.368;2023-04-27T07:28:15;101573.66;;;8.32;85.22
11985;BME280;6052;53.246;10.368;2023-04-27T07:30:44;101572.13;;;8.17;85.67
11985;BME280;6052;53.246;10.368;2023-04-27T07:33:14;101583.03;;;8.15;86.47
11985;BME280;6052;53.246;10.368;2023-04-27T07:35:43;101584.97;;;8.28;86.88
11985;BME280;6052;53.246;10.368;2023-04-27T07:38:15;101587.63;;;8.21;86.33
11985;BME280;6052;53.246;10.368;2023-04-27T07:40:45;101595.22;;;8.24;85.61
11985;BME280;6052;53.246;10.368;2023-04-27T07:43:15;101595.72;;;8.34;84.99
11985;BME280;6052;53.246;10.368;2023-04-27T07:45:44;101596.59;;;8.54;85.50
11985;BME280;6052;53.246;10.368;2023-04-27T07:48:15;101587.53;;;8.55;86.18
11985;BME280;6052;53.246;10.368;2023-04-27T07:50:44;101592.06;;;8.55;86.85
11985;BME280;6052;53.246;10.368;2023-04-27T07:53:16;101584.25;;;8.66;87.40
11985;BME280;6052;53.246;10.368;2023-04-27T07:55:46;101589.00;;;8.64;85.93
11985;BME280;6052;53.246;10.368;2023-04-27T07:58:15;101592.31;;;8.73;83.25
11985;BME280;6052;53.246;10.368;2023-04-27T08:00:45;101595.81;;;8.86;81.78
11985;BME280;6052;53.246;10.368;2023-04-27T08:03:14;101589.44;;;8.94;81.24
11985;BME280;6052;53.246;10.368;2023-04-27T08:05:44;101588.66;;;9.13;84.55
11985;BME280;6052;53.246;10.368;2023-04-27T08:08:17;101586.16;;;9.05;81.88
11985;BME280;6052;53.246;10.368;2023-04-27T08:10:47;101591.31;;;8.87;80.84
11985;BME280;6052;53.246;10.368;2023-04-27T08:13:16;101590.69;;;8.98;79.82
11985;BME280;6052;53.246;10.368;2023-04-27T08:15:45;101597.47;;;8.94;79.48
11985;BME280;6052;53.246;10.368;2023-04-27T08:18:15;101595.66;;;8.94;79.36
11985;BME280;6052;53.246;10.368;2023-04-27T08:20:45;101587.84;;;9.06;80.96
11985;BME280;6052;53.246;10.368;2023-04-27T08:23:17;101593.78;;;9.08;79.66
11985;BME280;6052;53.246;10.368;2023-04-27T08:25:46;101588.44;;;9.34;80.30
11985;BME280;6052;53.246;10.368;2023-04-27T08:28:16;101594.22;;;9.37;79.35
11985;BME280;6052;53.246;10.368;2023-04-27T08:30:45;101593.00;;;9.40;79.83
11985;BME280;6052;53.246;10.368;2023-04-27T08:33:14;101595.66;;;9.33;77.09
11985;BME280;6052;53.246;10.368;2023-04-27T08:35:43;101586.59;;;9.34;76.18
11985;BME280;6052;53.246;10.368;2023-04-27T08:38:13;101588.22;;;9.48;75.66
11985;BME280;6052;53.246;10.368;2023-04-27T08:40:45;101581.03;;;9.36;72.86
11985;BME280;6052;53.246;10.368;2023-04-27T08:43:14;101579.78;;;9.32;71.53
11985;BME280;6052;53.246;10.368;2023-04-27T08:45:47;101577.31;;;9.50;73.21
11985;BME280;6052;53.246;10.368;2023-04-27T08:48:17;101572.09;;;9.68;73.70
11985;BME280;6052;53.246;10.368;2023-04-27T08:50:49;101570.28;;;9.55;71.08
11985;BME280;6052;53.246;10.368;2023-04-27T08:53:19;101569.06;;;9.51;69.95
11985;BME280;6052;53.246;10.368;2023-04-27T08:55:51;101571.13;;;9.43;69.32
11985;BME280;6052;53.246;10.368;2023-04-27T08:58:34;101580.00;;;9.43;67.42
11985;BME280;6052;53.246;10.368;2023-04-27T09:01:05;101571.09;;;9.56;67.79
11985;BME280;6052;53.246;10.368;2023-04-27T09:03:35;101574.19;;;9.53;67.54
11985;BME280;6052;53.246;10.368;2023-04-27T09:06:06;101574.19;;;9.66;68.47
11985;BME280;6052;53.246;10.368;2023-04-27T09:08:43;101571.91;;;9.69;68.68
11985;BME280;6052;53.246;10.368;2023-04-27T09:11:27;101573.78;;;9.62;68.48
11985;BME280;6052;53.246;10.368;2023-04-27T09:13:58;101576.59;;;9.80;68.48
11985;BME280;6052;53.246;10.368;2023-04-27T09:16:29;101573.16;;;9.67;68.91
11985;BME280;6052;53.246;10.368;2023-04-27T09:18:59;101575.34;;;9.89;69.19
11985;BME280;6052;53.246;10.368;2023-04-27T09:21:29;101571.44;;;9.92;69.34
11985;BME280;6052;53.246;10.368;2023-04-27T09:24:09;101559.09;;;9.78;68.19
11985;BME280;6052;53.246;10.368;2023-04-27T09:26:48;101565.69;;;9.75;68.56
11985;BME280;6052;53.246;10.368;2023-04-27T09:29:17;101565.66;;;10.52;71.90
11985;BME280;6052;53.246;10.368;2023-04-27T09:31:47;101561.44;;;10.62;72.28
11985;BME280;6052;53.246;10.368;2023-04-27T09:34:16;101559.63;;;10.12;68.13
11985;BME280;6052;53.246;10.368;2023-04-27T09:36:46;101561.44;;;10.25;69.22
11985;BME280;6052;53.246;10.368;2023-04-27T09:39:15;101565.19;;;10.11;67.35
11985;BME280;6052;53.246;10.368;2023-04-27T09:41:48;101563.31;;;10.24;69.00
11985;BME280;6052;53.246;10.368;2023-04-27T09:44:18;101559.63;;;10.56;70.65
11985;BME280;6052;53.246;10.368;2023-04-27T09:46:50;101548.88;;;10.19;66.73
11985;BME280;6052;53.246;10.368;2023-04-27T09:49:20;101552.69;;;10.36;65.48
11985;BME280;6052;53.246;10.368;2023-04-27T09:51:50;101550.72;;;10.56;67.52
11985;BME280;6052;53.246;10.368;2023-04-27T09:54:24;101551.81;;;10.48;66.44
11985;BME280;6052;53.246;10.368;2023-04-27T09:57:04;101550.91;;;10.61;67.30
11985;BME280;6052;53.246;10.368;2023-04-27T10:00:02;101548.09;;;10.49;65.20
11985;BME280;6052;53.246;10.368;2023-04-27T10:02:41;101556.63;;;10.33;63.52
11985;BME280;6052;53.246;10.368;2023-04-27T10:05:29;101558.16;;;10.60;63.75
11985;BME280;6052;53.246;10.368;2023-04-27T10:08:02;101557.13;;;11.17;64.95
11985;BME280;6052;53.246;10.368;2023-04-27T10:10:41;101532.97;;;11.10;63.85
11985;BME280;6052;53.246;10.368;2023-04-27T10:13:19;101550.16;;;11.09;64.29
11985;BME280;6052;53.246;10.368;2023-04-27T10:15:49;101544.31;;;10.88;64.18
11985;BME280;6052;53.246;10.368;2023-04-27T10:18:26;101535.66;;;11.35;63.14
11985;BME280;6052;53.246;10.368;2023-04-27T10:21:08;101544.56;;;11.11;61.20
11985;BME280;6052;53.246;10.368;2023-04-27T10:23:44;101539.13;;;10.93;61.02
11985;BME280;6052;53.246;10.368;2023-04-27T10:26:21;101536.09;;;10.83;60.71
11985;BME280;6052;53.246;10.368;2023-04-27T10:29:04;101549.50;;;10.89;62.70
11985;BME280;6052;53.246;10.368;2023-04-27T10:31:34;101549.41;;;10.71;62.77
11985;BME280;6052;53.246;10.368;2023-04-27T10:34:06;101550.78;;;10.80;63.08
11985;BME280;6052;53.246;10.368;2023-04-27T10:36:36;101552.13;;;10.96;63.66
11985;BME280;6052;53.246;10.368;2023-04-27T10:39:14;101538.69;;;10.96;63.63
11985;BME280;6052;53.246;10.368;2023-04-27T10:41:51;101552.06;;;11.27;65.07
11985;BME280;6052;53.246;10.368;2023-04-27T10:44:27;101543.31;;;11.13;64.34
11985;BME280;6052;53.246;10.368;2023-04-27T10:46:58;101542.84;;;11.16;65.63
11985;BME280;6052;53.246;10.368;2023-04-27T10:49:29;101546.44;;;11.53;64.98
11985;BME280;6052;53.246;10.368;2023-04-27T10:51:59;101549.72;;;11.12;63.19
11985;BME280;6052;53.246;10.368;2023-04-27T10:54:31;101554.16;;;11.25;64.16
11985;BME280;6052;53.246;10.368;2023-04-27T10:57:03;101552.75;;;10.91;62.32
11985;BME280;6052;53.246;10.368;2023-04-27T10:59:47;101549.69;;;11.37;63.57
11985;BME280;6052;53.246;10.368;2023-04-27T11:02:25;101542.16;;;11.45;62.60
11985;BME280;6052;53.246;10.368;2023-04-27T11:04:55;101543.41;;;11.25;62.02
11985;BME280;6052;53.246;10.368;2023-04-27T11:07:25;101535.94;;;11.27;62.60
11985;BME280;6052;53.246;10.368;2023-04-27T11:09:55;101548.06;;;11.36;61.81
11985;BME280;6052;53.246;10.368;2023-04-27T11:12:24;101545.09;;;11.19;60.90
11985;BME280;6052;53.246;10.368;2023-04-27T11:14:58;101532.47;;;11.44;61.43
11985;BME280;6052;53.246;10.368;2023-04-27T11:17:28;101540.81;;;11.36;60.71
11985;BME280;6052;53.246;10.368;2023-04-27T11:19:57;101543.16;;;11.51;60.89
11985;BME280;6052;53.246;10.368;2023-04-27T11:22:27;101524.41;;;11.69;61.39
11985;BME280;6052;53.246;10.368;2023-04-27T11:24:56;101534.69;;;11.90;60.39
11985;BME280;6052;53.246;10.368;2023-04-27T11:27:35;101532.44;;;11.87;60.20
11985;BME280;6052;53.246;10.368;2023-04-27T11:30:17;101531.25;;;11.65;59.34
11985;BME280;6052;53.246;10.368;2023-04-27T11:32:47;101537.16;;;11.73;59.36
11985;BME280;6052;53.246;10.368;2023-04-27T11:35:17;101535.88;;;11.76;59.57
11985;BME280;6052;53.246;10.368;2023-04-27T11:37:55;101532.22;;;11.70;59.59
11985;BME280;6052;53.246;10.368;2023-04-27T11:40:26;101528.03;;;11.74;59.69
11985;BME280;6052;53.246;10.368;2023-04-27T11:42:57;101528.72;;;11.70;59.46
11985;BME280;6052;53.246;10.368;2023-04-27T11:45:32;101524.16;;;11.88;60.64
11985;BME280;6052;53.246;10.368;2023-04-27T11:48:01;101531.09;;;11.96;59.99
11985;BME280;6052;53.246;10.368;2023-04-27T11:50:31;101530.19;;;12.02;60.61
11985;BME280;6052;53.246;10.368;2023-04-27T11:53:00;101529.31;;;11.90;59.48
11985;BME280;6052;53.246;10.368;2023-04-27T11:55:34;101530.03;;;11.97;59.36
11985;BME280;6052;53.246;10.368;2023-04-27T11:58:12;101536.47;;;11.96;59.98
11985;BME280;6052;53.246;10.368;2023-04-27T12:00:44;101544.41;;;11.91;58.53
11985;BME280;6052;53.246;10.368;2023-04-27T12:03:14;101534.59;;;12.14;60.31
11985;BME280;6052;53.246;10.368;2023-04-27T12:05:47;101537.41;;;12.19;59.78
11985;BME280;6052;53.246;10.368;2023-04-27T12:08:17;101538.88;;;11.86;58.40
11985;BME280;6052;53.246;10.368;2023-04-27T12:10:46;101539.84;;;11.91;58.85
11985;BME280;6052;53.246;10.368;2023-04-27T12:13:16;101541.78;;;12.02;58.34
11985;BME280;6052;53.246;10.368;2023-04-27T12:15:48;101534.28;;;12.04;59.08
11985;BME280;6052;53.246;10.368;2023-04-27T12:18:17;101534.22;;;12.11;59.36
11985;BME280;6052;53.246;10.368;2023-04-27T12:20:47;101542.50;;;12.27;59.41
11985;BME280;6052;53.246;10.368;2023-04-27T12:23:16;101536.19;;;12.33;59.41
11985;BME280;6052;53.246;10.368;2023-04-27T12:25:46;101529.38;;;12.01;59.12
11985;BME280;6052;53.246;10.368;2023-04-27T12:28:15;101533.63;;;12.27;59.65
11985;BME280;6052;53.246;10.368;2023-04-27T12:30:48;101526.81;;;12.24;59.11
11985;BME280;6052;53.246;10.368;2023-04-27T12:33:18;101531.88;;;12.62;59.45
11985;BME280;6052;53.246;10.368;2023-04-27T12:35:48;101526.81;;;12.54;59.04
11985;BME280;6052;53.246;10.368;2023-04-27T12:38:17;101531.34;;;12.53;59.29
11985;BME280;6052;53.246;10.368;2023-04-27T12:40:47;101524.19;;;12.47;58.88
11985;BME280;6052;53.246;10.368;2023-04-27T12:43:17;101532.53;;;12.57;60.59
11985;BME280;6052;53.246;10.368;2023-04-27T12:45:49;101527.91;;;12.35;58.05
11985;BME280;6052;53.246;10.368;2023-04-27T12:48:18;101532.00;;;12.37;58.66
11985;BME280;6052;53.246;10.368;2023-04-27T12:50:49;101541.69;;;12.27;58.13
11985;BME280;6052;53.246;10.368;2023-04-27T12:53:18;101534.69;;;12.37;59.20
11985;BME280;6052;53.246;10.368;2023-04-27T12:55:47;101539.00;;;12.56;59.43
11985;BME280;6052;53.246;10.368;2023-04-27T12:58:17;101524.06;;;12.42;58.97
11985;BME280;6052;53.246;10.368;2023-04-27T13:00:49;101530.22;;;12.31;59.65
11985;BME280;6052;53.246;10.368;2023-04-27T13:03:19;101536.81;;;12.35;58.66
11985;BME280;6052;53.246;10.368;2023-04-27T13:05:48;101533.47;;;12.22;57.52
11985;BME280;6052;53.246;10.368;2023-04-27T13:08:18;101538.16;;;12.26;57.72
11985;BME280;6052;53.246;10.368;2023-04-27T13:10:47;101536.75;;;12.24;58.12
11985;BME280;6052;53.246;10.368;2023-04-27T13:13:17;101533.63;;;12.27;58.01
11985;BME280;6052;53.246;10.368;2023-04-27T13:15:49;101536.44;;;12.32;58.05